createdAt,value
2023-04-16T00:02:04.942Z,100114.72
2023-04-16T00:05:07.014Z,100112.88
2023-04-16T00:08:08.662Z,100110.38
2023-04-16T00:11:10.533Z,100103.28
2023-04-16T00:14:12.141Z,100103.69
2023-04-16T00:17:13.742Z,100097.78
2023-04-16T00:20:15.528Z,100104.00
2023-04-16T00:23:17.497Z,100092.69
2023-04-16T00:26:19.107Z,100080.75
2023-04-16T00:29:20.889Z,100073.38
2023-04-16T00:32:22.553Z,100073.81
2023-04-16T00:35:24.308Z,100069.72
2023-04-16T00:38:30.015Z,100071.72
2023-04-16T00:41:31.819Z,100076.06
2023-04-16T00:44:36.086Z,100077.28
2023-04-16T00:47:38.646Z,100077.63
2023-04-16T00:50:40.433Z,100070.87
2023-04-16T00:53:42.652Z,100082.25
2023-04-16T00:56:44.797Z,100091.09
2023-04-16T00:59:46.664Z,100094.78
2023-04-16T01:02:48.491Z,100090.31
2023-04-16T01:05:51.248Z,100093.34
2023-04-16T01:08:52.937Z,100099.25
2023-04-16T01:11:54.590Z,100106.06
2023-04-16T01:14:56.649Z,100109.03
2023-04-16T01:17:58.324Z,100113.56
2023-04-16T01:21:00.425Z,100116.91
2023-04-16T01:24:05.434Z,100126.66
2023-04-16T01:27:07.131Z,100119.47
2023-04-16T01:30:09.050Z,100117.91
2023-04-16T01:33:11.711Z,100108.88
2023-04-16T01:36:13.414Z,100107.81
2023-04-16T01:39:16.493Z,100105.53
2023-04-16T01:42:18.251Z,100115.09
2023-04-16T01:45:19.868Z,100100.28
2023-04-16T01:48:21.541Z,100115.63
2023-04-16T01:51:23.522Z,100112.38
2023-04-16T01:54:26.120Z,100113.56
2023-04-16T01:57:27.722Z,100115.09
2023-04-16T02:00:29.465Z,100111.37
2023-04-16T02:03:31.729Z,100112.72
2023-04-16T02:06:33.513Z,100119.16
2023-04-16T02:09:39.630Z,100122.41
2023-04-16T02:12:41.263Z,100122.72
2023-04-16T02:15:50.060Z,100125.13
2023-04-16T02:18:51.801Z,100127.63
2023-04-16T02:21:54.156Z,100127.53
2023-04-16T02:24:55.864Z,100124.50
2023-04-16T02:27:57.689Z,100123.09
2023-04-16T02:30:59.831Z,100116.97
2023-04-16T02:34:01.716Z,100118.63
2023-04-16T02:37:03.384Z,100121.91
2023-04-16T02:40:05.321Z,100112.84
2023-04-16T02:43:07.017Z,100116.22
2023-04-16T02:46:08.838Z,100126.66
2023-04-16T02:49:10.837Z,100126.22
2023-04-16T02:52:14.375Z,100134.28
2023-04-16T02:55:17.416Z,100137.91
2023-04-16T02:58:20.059Z,100141.91
2023-04-16T03:01:21.739Z,100136.78
2023-04-16T03:04:23.540Z,100140.78
2023-04-16T03:07:25.294Z,100136.66
2023-04-16T03:10:27.028Z,100141.94
2023-04-16T03:13:28.849Z,100134.19
2023-04-16T03:16:30.518Z,100133.62
2023-04-16T03:19:32.182Z,100147.38
2023-04-16T03:22:33.846Z,100142.19
2023-04-16T03:25:35.591Z,100138.22
2023-04-16T03:28:37.243Z,100142.53
2023-04-16T03:31:39.084Z,100152.44
2023-04-16T03:34:40.932Z,100147.28
2023-04-16T03:37:42.588Z,100159.19
2023-04-16T03:40:44.194Z,100157.03
2023-04-16T03:43:45.967Z,100159.28
2023-04-16T03:46:47.657Z,100170.03
2023-04-16T03:49:49.287Z,100171.22
2023-04-16T03:52:51.038Z,100179.31
2023-04-16T03:55:52.930Z,100179.87
2023-04-16T03:58:54.606Z,100184.78
2023-04-16T04:01:56.332Z,100178.31
2023-04-16T04:04:58.150Z,100175.75
2023-04-16T04:07:59.916Z,100183.47
2023-04-16T04:11:01.526Z,100197.13
2023-04-16T04:14:03.164Z,100189.22
2023-04-16T04:17:04.807Z,100188.75
2023-04-16T04:20:07.097Z,100186.37
2023-04-16T04:23:08.692Z,100188.16
2023-04-16T04:26:10.433Z,100194.94
2023-04-16T04:29:12.220Z,100189.06
2023-04-16T04:32:14.048Z,100185.97
2023-04-16T04:35:15.711Z,100189.53
2023-04-16T04:38:22.197Z,100190.56
2023-04-16T04:41:24.139Z,100195.00
2023-04-16T04:44:25.857Z,100193.19
2023-04-16T04:47:27.513Z,100197.78
2023-04-16T04:50:29.351Z,100201.50
2023-04-16T04:53:30.975Z,100195.88
2023-04-16T04:56:32.574Z,100197.78
2023-04-16T04:59:34.228Z,100203.06
2023-04-16T05:02:36.115Z,100199.13
2023-04-16T05:05:39.493Z,100207.78
2023-04-16T05:08:41.139Z,100210.56
2023-04-16T05:11:42.935Z,100206.56
2023-04-16T05:14:44.587Z,100210.72
2023-04-16T05:17:46.490Z,100211.28
2023-04-16T05:20:48.193Z,100206.50
2023-04-16T05:23:49.806Z,100205.63
2023-04-16T05:26:51.420Z,100217.88
2023-04-16T05:29:53.225Z,100217.47
2023-04-16T05:32:54.867Z,100218.25
2023-04-16T05:35:56.541Z,100221.56
2023-04-16T05:38:58.193Z,100211.69
2023-04-16T05:41:59.800Z,100211.56
2023-04-16T05:45:04.302Z,100212.50
2023-04-16T05:48:07.324Z,100207.88
2023-04-16T05:51:08.995Z,100211.69
2023-04-16T05:54:10.650Z,100210.00
2023-04-16T05:57:13.935Z,100214.00
2023-04-16T06:00:15.799Z,100216.34
2023-04-16T06:03:17.520Z,100228.72
2023-04-16T06:06:19.247Z,100225.09
2023-04-16T06:09:20.903Z,100229.63
2023-04-16T06:12:22.550Z,100237.06
2023-04-16T06:15:24.163Z,100242.12
2023-04-16T06:18:25.808Z,100232.47
2023-04-16T06:21:28.435Z,100239.44
2023-04-16T06:24:30.122Z,100235.53
2023-04-16T06:27:32.086Z,100244.94
2023-04-16T06:30:33.843Z,100243.78
2023-04-16T06:33:35.604Z,100237.88
2023-04-16T06:36:37.754Z,100240.00
2023-04-16T06:39:39.424Z,100244.19
2023-04-16T06:42:42.291Z,100241.97
2023-04-16T06:45:45.386Z,100239.06
2023-04-16T06:48:47.179Z,100239.22
2023-04-16T06:51:48.839Z,100230.66
2023-04-16T06:54:50.485Z,100236.00
2023-04-16T06:57:52.093Z,100237.63
2023-04-16T07:00:53.830Z,100241.16
2023-04-16T07:03:55.690Z,100241.16
2023-04-16T07:06:57.493Z,100239.47
2023-04-16T07:09:59.404Z,100242.56
2023-04-16T07:13:01.722Z,100235.44
2023-04-16T07:16:03.457Z,100235.19
2023-04-16T07:19:05.173Z,100250.87
2023-04-16T07:22:06.885Z,100241.34
2023-04-16T07:25:08.929Z,100243.28
2023-04-16T07:28:10.578Z,100248.75
2023-04-16T07:31:12.389Z,100245.59
2023-04-16T07:34:14.026Z,100254.25
2023-04-16T07:37:15.643Z,100262.50
2023-04-16T07:40:17.341Z,100270.97
2023-04-16T07:43:18.948Z,100279.03
2023-04-16T07:46:21.175Z,100273.16
2023-04-16T07:49:22.862Z,100277.28
2023-04-16T07:52:24.533Z,100284.09
2023-04-16T07:55:26.374Z,100271.88
2023-04-16T07:58:27.992Z,100274.87
2023-04-16T08:01:29.781Z,100269.97
2023-04-16T08:04:31.719Z,100274.75
2023-04-16T08:07:34.574Z,100273.50
2023-04-16T08:10:36.568Z,100268.22
2023-04-16T08:13:38.245Z,100268.22
2023-04-16T08:16:40.625Z,100261.97
2023-04-16T08:19:45.106Z,100262.72
2023-04-16T08:22:46.879Z,100260.38
2023-04-16T08:25:48.530Z,100264.84
2023-04-16T08:28:50.157Z,100259.50
2023-04-16T08:31:52.948Z,100262.09
2023-04-16T08:34:54.800Z,100260.94
2023-04-16T08:37:57.953Z,100279.16
2023-04-16T08:41:03.323Z,100281.31
2023-04-16T08:44:08.783Z,100284.75
2023-04-16T08:47:12.646Z,100303.88
2023-04-16T08:50:22.384Z,100290.56
2023-04-16T08:53:32.764Z,100300.06
2023-04-16T08:56:37.442Z,100308.53
2023-04-16T08:59:40.267Z,100315.69
2023-04-16T09:02:43.017Z,100318.19
2023-04-16T09:05:45.065Z,100314.03
2023-04-16T09:08:48.155Z,100314.75
2023-04-16T09:11:52.401Z,100307.12
2023-04-16T09:14:54.161Z,100305.03
2023-04-16T09:17:57.644Z,100323.00
2023-04-16T09:20:59.762Z,100318.00
2023-04-16T09:24:02.074Z,100317.06
2023-04-16T09:27:04.150Z,100313.47
2023-04-16T09:30:26.175Z,100307.53
2023-04-16T09:33:27.828Z,100313.56
2023-04-16T09:36:31.380Z,100303.62
2023-04-16T09:39:33.027Z,100312.31
2023-04-16T09:42:37.260Z,100313.16
2023-04-16T09:45:52.900Z,100308.88
2023-04-16T09:48:54.565Z,100311.00
2023-04-16T09:51:57.210Z,100311.19
2023-04-16T09:55:00.043Z,100303.19
2023-04-16T09:58:02.496Z,100308.06
2023-04-16T10:01:10.128Z,100306.75
2023-04-16T10:04:11.874Z,100310.34
2023-04-16T10:07:13.545Z,100301.13
2023-04-16T10:10:15.639Z,100290.12
2023-04-16T10:13:19.214Z,100287.56
2023-04-16T10:16:22.403Z,100287.13
2023-04-16T10:19:25.570Z,100294.47
2023-04-16T10:22:27.201Z,100290.09
2023-04-16T10:25:29.130Z,100279.28
2023-04-16T10:28:31.127Z,100285.75
2023-04-16T10:31:33.124Z,100285.88
2023-04-16T10:34:36.552Z,100280.78
2023-04-16T10:37:41.016Z,100284.28
2023-04-16T10:40:45.042Z,100274.56
2023-04-16T10:43:48.446Z,100280.75
2023-04-16T10:46:50.341Z,100270.22
2023-04-16T10:49:52.079Z,100271.97
2023-04-16T10:53:20.780Z,100263.22
2023-04-16T10:56:27.068Z,100275.44
2023-04-16T10:59:33.457Z,100271.13
2023-04-16T11:02:35.402Z,100279.03
2023-04-16T11:05:49.569Z,100278.16
2023-04-16T11:08:55.030Z,100273.75
2023-04-16T11:11:57.435Z,100275.41
2023-04-16T11:15:01.451Z,100270.91
2023-04-16T11:18:04.182Z,100276.97
2023-04-16T11:21:10.671Z,100274.19
2023-04-16T11:24:12.567Z,100273.44
2023-04-16T11:27:16.130Z,100275.88
2023-04-16T11:30:19.441Z,100269.84
2023-04-16T11:33:21.334Z,100270.94
2023-04-16T11:36:24.234Z,100262.97
2023-04-16T11:39:27.234Z,100264.72
2023-04-16T11:42:29.490Z,100264.78
2023-04-16T11:45:31.285Z,100264.66
2023-04-16T11:48:53.803Z,100256.94
2023-04-16T11:51:56.228Z,100246.34
2023-04-16T11:54:59.624Z,100249.94
2023-04-16T11:58:12.473Z,100247.28
2023-04-16T12:01:21.481Z,100242.16
2023-04-16T12:04:27.340Z,100243.91
2023-04-16T12:07:29.121Z,100249.00
2023-04-16T12:10:32.367Z,100243.44
2023-04-16T12:13:39.942Z,100248.75
2023-04-16T12:16:41.879Z,100245.94
2023-04-16T12:19:57.925Z,100234.53
2023-04-16T12:23:01.458Z,100235.94
2023-04-16T12:26:12.779Z,100233.22
2023-04-16T12:29:15.323Z,100234.19
2023-04-16T12:32:23.550Z,100228.81
2023-04-16T12:35:32.663Z,100222.31
2023-04-16T12:38:34.304Z,100221.72
2023-04-16T12:41:37.333Z,100216.31
2023-04-16T12:44:38.962Z,100210.19
2023-04-16T12:47:40.940Z,100209.13
2023-04-16T12:50:44.362Z,100199.31
2023-04-16T12:53:46.280Z,100199.94
2023-04-16T12:56:48.068Z,100196.59
2023-04-16T12:59:49.814Z,100185.75
2023-04-16T13:02:51.700Z,100185.50
2023-04-16T13:05:54.068Z,100178.78
2023-04-16T13:08:56.532Z,100183.37
2023-04-16T13:11:58.298Z,100181.44
2023-04-16T13:14:59.924Z,100177.81
2023-04-16T13:18:01.845Z,100167.47
2023-04-16T13:21:03.779Z,100172.19
2023-04-16T13:24:05.979Z,100165.00
2023-04-16T13:27:08.528Z,100165.94
2023-04-16T13:30:11.112Z,100165.06
2023-04-16T13:33:12.920Z,100164.25
2023-04-16T13:36:14.698Z,100167.06
2023-04-16T13:39:16.559Z,100158.75
2023-04-16T13:42:18.534Z,100154.94
2023-04-16T13:45:20.731Z,100148.41
2023-04-16T13:48:22.554Z,100151.53
2023-04-16T13:51:24.383Z,100152.59
2023-04-16T13:54:26.583Z,100148.31
2023-04-16T13:57:28.819Z,100154.59
2023-04-16T14:00:30.472Z,100142.06
2023-04-16T14:03:36.380Z,100146.28
2023-04-16T14:06:38.144Z,100141.09
2023-04-16T14:09:40.269Z,100146.66
2023-04-16T14:12:42.973Z,100135.22
2023-04-16T14:15:44.602Z,100138.28
2023-04-16T14:18:46.592Z,100130.53
2023-04-16T14:21:48.331Z,100140.94
2023-04-16T14:24:50.347Z,100136.66
2023-04-16T14:27:52.407Z,100141.13
2023-04-16T14:30:54.078Z,100135.50
2023-04-16T14:33:55.826Z,100134.47
2023-04-16T14:36:58.250Z,100134.59
2023-04-16T14:40:00.901Z,100125.59
2023-04-16T14:43:02.506Z,100122.00
2023-04-16T14:46:06.583Z,100123.06
2023-04-16T14:49:11.983Z,100118.03
2023-04-16T14:52:14.232Z,100122.53
2023-04-16T14:55:15.877Z,100115.50
2023-04-16T14:58:17.760Z,100119.06
2023-04-16T15:01:19.533Z,100117.19
2023-04-16T15:04:21.634Z,100112.09
2023-04-16T15:07:24.082Z,100118.19
2023-04-16T15:10:26.296Z,100114.75
2023-04-16T15:13:33.843Z,100114.78
2023-04-16T15:16:36.009Z,100117.34
2023-04-16T15:19:37.966Z,100112.03
2023-04-16T15:22:40.271Z,100112.13
2023-04-16T15:25:41.977Z,100110.38
2023-04-16T15:28:44.189Z,100111.25
2023-04-16T15:31:47.512Z,100113.88
2023-04-16T15:34:51.136Z,100114.75
2023-04-16T15:37:55.386Z,100107.72
2023-04-16T15:41:00.577Z,100113.88
2023-04-16T15:44:03.439Z,100106.84
2023-04-16T15:47:08.276Z,100122.56
2023-04-16T15:50:11.989Z,100121.66
2023-04-16T15:53:14.514Z,100118.13
2023-04-16T15:56:17.439Z,100116.44
2023-04-16T15:59:19.473Z,100117.38
2023-04-16T16:02:21.678Z,100124.31
2023-04-16T16:05:23.950Z,100123.50
2023-04-16T16:08:25.686Z,100128.72
2023-04-16T16:11:28.553Z,100131.31
2023-04-16T16:14:30.765Z,100135.66
2023-04-16T16:17:35.767Z,100135.72
2023-04-16T16:20:38.214Z,100140.91
2023-04-16T16:23:40.351Z,100138.41
2023-04-16T16:26:43.048Z,100138.44
2023-04-16T16:29:45.362Z,100135.75
2023-04-16T16:32:47.750Z,100126.91
2023-04-16T16:35:50.672Z,100122.47
2023-04-16T16:38:52.683Z,100117.97
2023-04-16T16:41:54.650Z,100111.81
2023-04-16T16:44:57.553Z,100106.47
2023-04-16T16:48:00.077Z,100103.75
2023-04-16T16:51:11.523Z,100095.84
2023-04-16T16:54:13.719Z,100089.72
2023-04-16T16:57:16.179Z,100086.22
2023-04-16T17:00:20.275Z,100088.81
2023-04-16T17:03:22.339Z,100101.87
2023-04-16T17:06:24.798Z,100111.47
2023-04-16T17:09:26.966Z,100115.78
2023-04-16T17:12:29.228Z,100120.94
2023-04-16T17:15:31.695Z,100125.16
2023-04-16T17:18:34.531Z,100123.50
2023-04-16T17:21:37.017Z,100120.94
2023-04-16T17:24:39.639Z,100116.56
2023-04-16T17:27:42.536Z,100115.69
2023-04-16T17:30:45.522Z,100121.72
2023-04-16T17:33:47.820Z,100119.00
2023-04-16T17:36:51.146Z,100114.50
2023-04-16T17:39:54.355Z,100116.41
2023-04-16T17:42:57.401Z,100106.66
2023-04-16T17:45:59.851Z,100116.28
2023-04-16T17:49:02.542Z,100117.91
2023-04-16T17:52:04.324Z,100125.72
2023-04-16T17:55:07.174Z,100119.56
2023-04-16T17:58:10.153Z,100135.25
2023-04-16T18:01:13.467Z,100134.38
2023-04-16T18:04:16.278Z,100137.00
2023-04-16T18:07:19.885Z,100147.56
2023-04-16T18:10:22.665Z,100142.25
2023-04-16T18:13:25.489Z,100141.44
2023-04-16T18:16:29.443Z,100143.22
2023-04-16T18:19:32.445Z,100142.34
2023-04-16T18:22:34.662Z,100148.34
2023-04-16T18:25:36.482Z,100143.19
2023-04-16T18:28:38.671Z,100145.75
2023-04-16T18:31:41.055Z,100148.41
2023-04-16T18:34:44.981Z,100146.59
2023-04-16T18:37:47.577Z,100146.56
2023-04-16T18:40:50.915Z,100145.72
2023-04-16T18:43:55.609Z,100132.75
2023-04-16T18:46:58.670Z,100125.72
2023-04-16T18:50:02.046Z,100124.75
2023-04-16T18:53:07.543Z,100125.66
2023-04-16T18:56:11.424Z,100123.91
2023-04-16T18:59:14.346Z,100123.88
2023-04-16T19:02:17.505Z,100127.19
2023-04-16T19:05:21.640Z,100128.06
2023-04-16T19:08:24.790Z,100135.06
2023-04-16T19:11:30.533Z,100136.69
2023-04-16T19:14:33.319Z,100137.41
2023-04-16T19:17:35.666Z,100148.59
2023-04-16T19:20:38.058Z,100140.69
2023-04-16T19:23:39.966Z,100141.47
2023-04-16T19:26:42.440Z,100138.78
2023-04-16T19:29:47.345Z,100147.53
2023-04-16T19:32:49.918Z,100143.88
2023-04-16T19:35:52.735Z,100144.75
2023-04-16T19:38:56.623Z,100136.81
2023-04-16T19:41:59.848Z,100135.00
2023-04-16T19:45:04.050Z,100140.12
2023-04-16T19:48:06.882Z,100141.72
2023-04-16T19:51:09.204Z,100137.25
2023-04-16T19:54:12.076Z,100138.13
2023-04-16T19:57:14.888Z,100138.94
2023-04-16T20:00:18.810Z,100144.12
2023-04-16T20:03:21.343Z,100145.78
2023-04-16T20:06:24.579Z,100146.59
2023-04-16T20:09:26.921Z,100144.03
2023-04-16T20:12:28.950Z,100139.72
2023-04-16T20:15:31.060Z,100140.62
2023-04-16T20:18:33.866Z,100134.28
2023-04-16T20:21:39.123Z,100138.56
2023-04-16T20:24:47.727Z,100137.50
2023-04-16T20:27:50.105Z,100139.25
2023-04-16T20:30:52.300Z,100141.81
2023-04-16T20:33:54.240Z,100141.75
2023-04-16T20:36:56.136Z,100142.53
2023-04-16T20:39:58.196Z,100147.72
2023-04-16T20:43:00.282Z,100145.78
2023-04-16T20:46:03.102Z,100144.94
2023-04-16T20:49:06.373Z,100142.13
2023-04-16T20:52:08.531Z,100142.13
2023-04-16T20:55:10.536Z,100142.13
2023-04-16T20:58:12.211Z,100140.25
2023-04-16T21:01:13.919Z,100134.12
2023-04-16T21:04:16.400Z,100133.78
2023-04-16T21:07:18.081Z,100132.09
2023-04-16T21:10:20.403Z,100119.63
2023-04-16T21:13:22.233Z,100120.53
2023-04-16T21:16:23.967Z,100115.88
2023-04-16T21:19:25.856Z,100114.19
2023-04-16T21:22:27.564Z,100119.38
2023-04-16T21:25:29.848Z,100112.25
2023-04-16T21:28:31.484Z,100109.56
2023-04-16T21:31:33.279Z,100112.91
2023-04-16T21:34:34.950Z,100117.00
2023-04-16T21:37:37.071Z,100122.41
2023-04-16T21:40:38.740Z,100124.97
2023-04-16T21:43:40.416Z,100117.94
2023-04-16T21:46:42.128Z,100122.19
2023-04-16T21:49:44.296Z,100121.28
2023-04-16T21:52:46.826Z,100118.69
2023-04-16T21:55:48.436Z,100116.62
2023-04-16T21:58:50.454Z,100120.47
2023-04-16T22:01:52.183Z,100118.59
2023-04-16T22:04:53.837Z,100108.81
2023-04-16T22:07:55.795Z,100114.94
2023-04-16T22:11:02.645Z,100119.84
2023-04-16T22:14:08.281Z,100116.59
2023-04-16T22:17:10.079Z,100114.69
2023-04-16T22:20:12.780Z,100114.69
2023-04-16T22:23:14.423Z,100112.00
2023-04-16T22:26:16.177Z,100111.13
2023-04-16T22:29:17.882Z,100102.38
2023-04-16T22:32:19.677Z,100096.84
2023-04-16T22:35:21.356Z,100109.94
2023-04-16T22:38:23.012Z,100109.91
2023-04-16T22:41:24.721Z,100107.16
2023-04-16T22:44:26.402Z,100103.66
2023-04-16T22:47:28.098Z,100091.25
2023-04-16T22:50:31.363Z,100082.62
2023-04-16T22:53:33.249Z,100089.59
2023-04-16T22:56:34.935Z,100090.53
2023-04-16T22:59:36.627Z,100082.72
2023-04-16T23:02:38.361Z,100090.59
2023-04-16T23:05:40.191Z,100083.59
2023-04-16T23:08:41.871Z,100096.72
2023-04-16T23:11:43.472Z,100082.72
2023-04-16T23:14:46.125Z,100079.16
2023-04-16T23:17:47.964Z,100079.09
2023-04-16T23:20:53.836Z,100076.41
2023-04-16T23:23:56.688Z,100073.00
2023-04-16T23:26:58.585Z,100069.66
2023-04-16T23:30:00.334Z,100058.00
2023-04-16T23:33:03.013Z,100062.38
2023-04-16T23:36:05.181Z,100056.38
2023-04-16T23:39:06.826Z,100048.41
2023-04-16T23:42:08.713Z,100055.41
2023-04-16T23:45:10.507Z,100051.78
2023-04-16T23:48:12.236Z,100056.28
2023-04-16T23:51:13.949Z,100061.47
2023-04-16T23:54:15.658Z,100063.38
2023-04-16T23:57:17.312Z,100057.81
